sensor_id;sensor_type;location;lat;lon;timestamp;pressure;altitude;pressure_sealevel;temperature;humidity
54042;BME280;41156;51.508;5.406;2022-07-06T00:01:03;102469.28;;;14.09;61.45
54042;BME280;41156;51.508;5.406;2022-07-06T00:04:04;102462.53;;;14.05;61.53
54042;BME280;41156;51.508;5.406;2022-07-06T00:07:04;102461.28;;;14.01;61.62
54042;BME280;41156;51.508;5.406;2022-07-06T00:10:05;102455.41;;;13.97;61.88
54042;BME280;41156;51.508;5.406;2022-07-06T00:13:05;102456.81;;;13.93;62.39
54042;BME280;41156;51.508;5.406;2022-07-06T00:16:06;102468.28;;;13.88;62.55
54042;BME280;41156;51.508;5.406;2022-07-06T00:19:06;102462.41;;;13.85;62.39
54042;BME280;41156;51.508;5.406;2022-07-06T00:22:06;102464.88;;;13.80;62.86
54042;BME280;41156;51.508;5.406;2022-07-06T00:25:07;102466.31;;;13.76;62.97
54042;BME280;41156;51.508;5.406;2022-07-06T00:28:08;102471.06;;;13.74;62.84
54042;BME280;41156;51.508;5.406;2022-07-06T00:31:08;102464.38;;;13.69;63.05
54042;BME280;41156;51.508;5.406;2022-07-06T00:34:09;102461.84;;;13.68;63.17
54042;BME280;41156;51.508;5.406;2022-07-06T00:37:09;102467.22;;;13.61;63.65
54042;BME280;41156;51.508;5.406;2022-07-06T00:40:10;102463.22;;;13.57;63.55
54042;BME280;41156;51.508;5.406;2022-07-06T00:43:10;102468.38;;;13.52;64.02
54042;BME280;41156;51.508;5.406;2022-07-06T00:46:10;102471.09;;;13.52;64.35
54042;BME280;41156;51.508;5.406;2022-07-06T00:49:11;102463.38;;;13.49;64.69
54042;BME280;41156;51.508;5.406;2022-07-06T00:52:31;102460.59;;;13.42;64.62
54042;BME280;41156;51.508;5.406;2022-07-06T00:55:34;102461.81;;;13.40;65.20
54042;BME280;41156;51.508;5.406;2022-07-06T00:58:35;102472.03;;;13.38;65.28
54042;BME280;41156;51.508;5.406;2022-07-06T01:01:36;102468.66;;;13.36;65.00
54042;BME280;41156;51.508;5.406;2022-07-06T01:04:36;102454.78;;;13.30;65.48
54042;BME280;41156;51.508;5.406;2022-07-06T01:07:38;102460.63;;;13.27;66.12
54042;BME280;41156;51.508;5.406;2022-07-06T01:10:39;102463.72;;;13.24;65.95
54042;BME280;41156;51.508;5.406;2022-07-06T01:13:39;102461.19;;;13.23;65.94
54042;BME280;41156;51.508;5.406;2022-07-06T01:16:40;102454.66;;;13.17;65.91
54042;BME280;41156;51.508;5.406;2022-07-06T01:19:40;102463.19;;;13.14;66.39
54042;BME280;41156;51.508;5.406;2022-07-06T01:22:41;102463.75;;;13.09;66.49
54042;BME280;41156;51.508;5.406;2022-07-06T01:25:42;102458.53;;;13.08;66.43
54042;BME280;41156;51.508;5.406;2022-07-06T01:28:43;102449.06;;;13.04;66.44
54042;BME280;41156;51.508;5.406;2022-07-06T01:31:50;102463.06;;;13.01;68.66
54042;BME280;41156;51.508;5.406;2022-07-06T01:34:50;102457.16;;;12.97;66.98
54042;BME280;41156;51.508;5.406;2022-07-06T01:37:51;102467.72;;;12.92;67.09
54042;BME280;41156;51.508;5.406;2022-07-06T01:40:51;102459.13;;;12.88;67.02
54042;BME280;41156;51.508;5.406;2022-07-06T01:43:51;102462.22;;;12.85;67.23
54042;BME280;41156;51.508;5.406;2022-07-06T01:46:51;102462.59;;;12.82;67.21
54042;BME280;41156;51.508;5.406;2022-07-06T01:49:52;102455.88;;;12.78;67.53
54042;BME280;41156;51.508;5.406;2022-07-06T01:52:52;102461.69;;;12.75;67.51
54042;BME280;41156;51.508;5.406;2022-07-06T01:55:53;102456.63;;;12.72;67.87
54042;BME280;41156;51.508;5.406;2022-07-06T01:58:53;102457.88;;;12.69;67.81
54042;BME280;41156;51.508;5.406;2022-07-06T02:01:53;102459.91;;;12.67;67.89
54042;BME280;41156;51.508;5.406;2022-07-06T02:04:53;102455.72;;;12.65;67.97
54042;BME280;41156;51.508;5.406;2022-07-06T02:07:54;102459.81;;;12.61;68.18
54042;BME280;41156;51.508;5.406;2022-07-06T02:10:54;102457.53;;;12.57;68.23
54042;BME280;41156;51.508;5.406;2022-07-06T02:13:54;102466.66;;;12.56;68.30
54042;BME280;41156;51.508;5.406;2022-07-06T02:16:55;102462.66;;;12.52;68.48
54042;BME280;41156;51.508;5.406;2022-07-06T02:19:55;102461.34;;;12.48;68.73
54042;BME280;41156;51.508;5.406;2022-07-06T02:22:55;102462.78;;;12.44;68.94
54042;BME280;41156;51.508;5.406;2022-07-06T02:25:56;102462.28;;;12.40;69.02
54042;BME280;41156;51.508;5.406;2022-07-06T02:28:56;102459.78;;;12.39;69.01
54042;BME280;41156;51.508;5.406;2022-07-06T02:31:56;102454.91;;;12.34;69.21
54042;BME280;41156;51.508;5.406;2022-07-06T02:34:56;102454.44;;;12.31;69.51
54042;BME280;41156;51.508;5.406;2022-07-06T02:37:57;102455.28;;;12.31;69.49
54042;BME280;41156;51.508;5.406;2022-07-06T02:40:57;102452.38;;;12.33;69.34
54042;BME280;41156;51.508;5.406;2022-07-06T02:43:58;102457.16;;;12.31;69.68
54042;BME280;41156;51.508;5.406;2022-07-06T02:46:58;102456.66;;;12.27;69.89
54042;BME280;41156;51.508;5.406;2022-07-06T02:49:58;102455.19;;;12.25;70.07
54042;BME280;41156;51.508;5.406;2022-07-06T02:52:59;102456.03;;;12.25;69.79
54042;BME280;41156;51.508;5.406;2022-07-06T02:56:01;102463.31;;;12.25;70.46
54042;BME280;41156;51.508;5.406;2022-07-06T02:59:01;102465.38;;;12.23;70.21
54042;BME280;41156;51.508;5.406;2022-07-06T03:02:04;102469.09;;;12.21;70.94
54042;BME280;41156;51.508;5.406;2022-07-06T03:05:04;102467.41;;;12.20;70.73
54042;BME280;41156;51.508;5.406;2022-07-06T03:08:05;102466.41;;;12.21;70.93
54042;BME280;41156;51.508;5.406;2022-07-06T03:11:05;102459.47;;;12.19;70.97
54042;BME280;41156;51.508;5.406;2022-07-06T03:14:06;102466.94;;;12.17;71.19
54042;BME280;41156;51.508;5.406;2022-07-06T03:17:06;102465.47;;;12.14;71.14
54042;BME280;41156;51.508;5.406;2022-07-06T03:20:07;102475.84;;;12.11;71.04
54042;BME280;41156;51.508;5.406;2022-07-06T03:23:07;102470.59;;;12.09;71.14
54042;BME280;41156;51.508;5.406;2022-07-06T03:26:07;102477.88;;;12.09;71.28
54042;BME280;41156;51.508;5.406;2022-07-06T03:29:07;102476.03;;;12.09;71.40
54042;BME280;41156;51.508;5.406;2022-07-06T03:32:08;102471.81;;;12.07;71.39
54042;BME280;41156;51.508;5.406;2022-07-06T03:35:08;102470.97;;;12.06;71.68
54042;BME280;41156;51.508;5.406;2022-07-06T03:38:08;102476.41;;;12.06;71.96
54042;BME280;41156;51.508;5.406;2022-07-06T03:41:09;102476.75;;;12.03;72.00
54042;BME280;41156;51.508;5.406;2022-07-06T03:44:09;102473.22;;;12.02;72.00
54042;BME280;41156;51.508;5.406;2022-07-06T03:47:09;102476.38;;;11.91;72.33
54042;BME280;41156;51.508;5.406;2022-07-06T03:50:10;102475.88;;;11.88;72.47
54042;BME280;41156;51.508;5.406;2022-07-06T03:53:10;102478.75;;;11.86;73.05
54042;BME280;41156;51.508;5.406;2022-07-06T03:56:10;102479.75;;;11.85;73.08
54042;BME280;41156;51.508;5.406;2022-07-06T03:59:29;102479.94;;;11.83;73.17
54042;BME280;41156;51.508;5.406;2022-07-06T04:02:29;102471.47;;;11.87;73.43
54042;BME280;41156;51.508;5.406;2022-07-06T04:05:29;102469.75;;;11.85;73.44
54042;BME280;41156;51.508;5.406;2022-07-06T04:08:30;102469.59;;;11.87;73.45
54042;BME280;41156;51.508;5.406;2022-07-06T04:11:30;102475.50;;;11.91;73.57
54042;BME280;41156;51.508;5.406;2022-07-06T04:14:30;102476.38;;;11.91;73.66
54042;BME280;41156;51.508;5.406;2022-07-06T04:17:30;102465.22;;;11.86;73.75
54042;BME280;41156;51.508;5.406;2022-07-06T04:20:50;102464.16;;;11.87;73.57
54042;BME280;41156;51.508;5.406;2022-07-06T04:23:50;102453.16;;;11.89;73.85
54042;BME280;41156;51.508;5.406;2022-07-06T04:26:50;102464.84;;;11.89;73.98
54042;BME280;41156;51.508;5.406;2022-07-06T04:29:52;102453.81;;;11.91;74.59
54042;BME280;41156;51.508;5.406;2022-07-06T04:32:53;102455.53;;;11.92;74.25
54042;BME280;41156;51.508;5.406;2022-07-06T04:35:53;102452.28;;;11.96;74.62
54042;BME280;41156;51.508;5.406;2022-07-06T04:38:53;102451.91;;;11.99;74.26
54042;BME280;41156;51.508;5.406;2022-07-06T04:41:54;102457.78;;;12.03;74.43
54042;BME280;41156;51.508;5.406;2022-07-06T04:44:54;102447.06;;;12.10;74.24
54042;BME280;41156;51.508;5.406;2022-07-06T04:47:54;102456.28;;;12.15;74.59
54042;BME280;41156;51.508;5.406;2022-07-06T04:50:55;102460.59;;;12.25;74.50
54042;BME280;41156;51.508;5.406;2022-07-06T04:53:55;102457.16;;;12.31;74.47
54042;BME280;41156;51.508;5.406;2022-07-06T04:56:55;102456.22;;;12.38;74.44
54042;BME280;41156;51.508;5.406;2022-07-06T04:59:56;102450.88;;;12.45;75.00
54042;BME280;41156;51.508;5.406;2022-07-06T05:02:56;102460.41;;;12.56;74.47
54042;BME280;41156;51.508;5.406;2022-07-06T05:05:57;102457.41;;;12.66;74.59
54042;BME280;41156;51.508;5.406;2022-07-06T05:08:57;102456.72;;;12.78;74.56
54042;BME280;41156;51.508;5.406;2022-07-06T05:11:59;102479.44;;;12.92;74.38
54042;BME280;41156;51.508;5.406;2022-07-06T05:14:59;102473.13;;;13.07;74.27
54042;BME280;41156;51.508;5.406;2022-07-06T05:18:00;102477.47;;;13.23;74.16
54042;BME280;41156;51.508;5.406;2022-07-06T05:21:00;102476.59;;;13.37;74.19
54042;BME280;41156;51.508;5.406;2022-07-06T05:24:00;102477.19;;;13.54;74.15
54042;BME280;41156;51.508;5.406;2022-07-06T05:27:01;102484.41;;;13.68;73.92
54042;BME280;41156;51.508;5.406;2022-07-06T05:30:01;102485.59;;;13.81;73.68
54042;BME280;41156;51.508;5.406;2022-07-06T05:33:01;102481.28;;;13.93;73.49
54042;BME280;41156;51.508;5.406;2022-07-06T05:36:02;102476.78;;;14.07;73.31
54042;BME280;41156;51.508;5.406;2022-07-06T05:39:02;102482.28;;;14.20;72.84
54042;BME280;41156;51.508;5.406;2022-07-06T05:42:03;102477.84;;;14.41;72.81
54042;BME280;41156;51.508;5.406;2022-07-06T05:45:04;102478.34;;;14.58;72.44
54042;BME280;41156;51.508;5.406;2022-07-06T05:48:05;102478.84;;;14.68;71.93
54042;BME280;41156;51.508;5.406;2022-07-06T05:51:24;102482.00;;;14.78;71.83
54042;BME280;41156;51.508;5.406;2022-07-06T05:54:25;102484.78;;;14.92;71.41
54042;BME280;41156;51.508;5.406;2022-07-06T05:57:25;102491.34;;;15.04;70.89
54042;BME280;41156;51.508;5.406;2022-07-06T06:00:27;102493.69;;;15.21;70.81
54042;BME280;41156;51.508;5.406;2022-07-06T06:03:28;102496.06;;;15.44;70.36
54042;BME280;41156;51.508;5.406;2022-07-06T06:06:28;102496.28;;;15.69;69.44
54042;BME280;41156;51.508;5.406;2022-07-06T06:09:31;102503.00;;;15.86;69.40
54042;BME280;41156;51.508;5.406;2022-07-06T06:12:32;102499.44;;;15.93;68.76
54042;BME280;41156;51.508;5.406;2022-07-06T06:15:32;102498.19;;;16.02;68.56
54042;BME280;41156;51.508;5.406;2022-07-06T06:18:32;102490.44;;;16.12;68.29
54042;BME280;41156;51.508;5.406;2022-07-06T06:21:33;102495.88;;;16.12;67.99
54042;BME280;41156;51.508;5.406;2022-07-06T06:24:33;102490.66;;;16.04;67.64
54042;BME280;41156;51.508;5.406;2022-07-06T06:27:33;102500.91;;;15.95;67.30
54042;BME280;41156;51.508;5.406;2022-07-06T06:30:34;102502.81;;;15.88;67.23
54042;BME280;41156;51.508;5.406;2022-07-06T06:33:35;102493.59;;;15.82;67.17
54042;BME280;41156;51.508;5.406;2022-07-06T06:36:35;102497.97;;;15.83;67.43
54042;BME280;41156;51.508;5.406;2022-07-06T06:39:35;102509.75;;;15.90;66.88
54042;BME280;41156;51.508;5.406;2022-07-06T06:42:36;102503.84;;;15.94;66.90
54042;BME280;41156;51.508;5.406;2022-07-06T06:45:37;102504.28;;;15.97;66.98
54042;BME280;41156;51.508;5.406;2022-07-06T06:48:38;102508.88;;;16.03;66.70
54042;BME280;41156;51.508;5.406;2022-07-06T06:51:38;102508.03;;;16.03;66.85
54042;BME280;41156;51.508;5.406;2022-07-06T06:54:39;102510.56;;;15.98;66.86
54042;BME280;41156;51.508;5.406;2022-07-06T06:57:40;102513.72;;;15.95;67.11
54042;BME280;41156;51.508;5.406;2022-07-06T07:00:40;102511.59;;;15.97;66.80
54042;BME280;41156;51.508;5.406;2022-07-06T07:03:40;102513.72;;;15.95;66.75
54042;BME280;41156;51.508;5.406;2022-07-06T07:06:41;102518.13;;;15.96;66.65
54042;BME280;41156;51.508;5.406;2022-07-06T07:09:41;102515.81;;;15.99;66.45
54042;BME280;41156;51.508;5.406;2022-07-06T07:12:43;102523.97;;;16.19;66.57
54042;BME280;41156;51.508;5.406;2022-07-06T07:15:44;102513.84;;;16.46;65.62
54042;BME280;41156;51.508;5.406;2022-07-06T07:18:44;102519.63;;;16.77;64.71
54042;BME280;41156;51.508;5.406;2022-07-06T07:21:45;102513.03;;;17.05;64.29
54042;BME280;41156;51.508;5.406;2022-07-06T07:24:45;102511.25;;;17.30;63.63
54042;BME280;41156;51.508;5.406;2022-07-06T07:27:46;102517.44;;;17.76;62.50
54042;BME280;41156;51.508;5.406;2022-07-06T07:30:47;102509.28;;;18.38;61.19
54042;BME280;41156;51.508;5.406;2022-07-06T07:33:47;102510.34;;;19.11;59.22
54042;BME280;41156;51.508;5.406;2022-07-06T07:36:48;102518.31;;;19.73;57.20
54042;BME280;41156;51.508;5.406;2022-07-06T07:39:48;102521.47;;;20.24;55.26
54042;BME280;41156;51.508;5.406;2022-07-06T07:42:49;102510.94;;;20.68;53.60
54042;BME280;41156;51.508;5.406;2022-07-06T07:45:49;102513.94;;;21.24;50.20
54042;BME280;41156;51.508;5.406;2022-07-06T07:48:49;102507.63;;;21.24;50.33
54042;BME280;41156;51.508;5.406;2022-07-06T07:51:50;102513.69;;;21.26;49.74
54042;BME280;41156;51.508;5.406;2022-07-06T07:54:50;102513.69;;;21.55;49.37
54042;BME280;41156;51.508;5.406;2022-07-06T07:57:51;102505.03;;;21.97;49.12
54042;BME280;41156;51.508;5.406;2022-07-06T08:00:51;102512.53;;;22.18;48.04
54042;BME280;41156;51.508;5.406;2022-07-06T08:03:51;102502.25;;;22.53;47.27
54042;BME280;41156;51.508;5.406;2022-07-06T08:06:51;102493.78;;;23.04;45.83
54042;BME280;41156;51.508;5.406;2022-07-06T08:09:52;102504.41;;;23.44;45.36
54042;BME280;41156;51.508;5.406;2022-07-06T08:12:52;102494.25;;;24.15;43.98
54042;BME280;41156;51.508;5.406;2022-07-06T08:15:52;102492.63;;;24.24;43.66
54042;BME280;41156;51.508;5.406;2022-07-06T08:18:53;102494.00;;;24.22;42.73
54042;BME280;41156;51.508;5.406;2022-07-06T08:21:53;102500.03;;;24.13;42.53
54042;BME280;41156;51.508;5.406;2022-07-06T08:24:53;102499.38;;;24.49;41.39
54042;BME280;41156;51.508;5.406;2022-07-06T08:27:54;102496.63;;;24.49;41.08
54042;BME280;41156;51.508;5.406;2022-07-06T08:30:54;102489.03;;;24.82;40.98
54042;BME280;41156;51.508;5.406;2022-07-06T08:33:55;102488.53;;;24.95;40.89
54042;BME280;41156;51.508;5.406;2022-07-06T08:36:56;102478.03;;;25.18;40.09
54042;BME280;41156;51.508;5.406;2022-07-06T08:39:56;102480.25;;;25.16;39.93
54042;BME280;41156;51.508;5.406;2022-07-06T08:42:57;102491.81;;;24.82;40.45
54042;BME280;41156;51.508;5.406;2022-07-06T08:45:59;102489.13;;;23.96;40.55
54042;BME280;41156;51.508;5.406;2022-07-06T08:49:00;102490.03;;;24.07;41.37
54042;BME280;41156;51.508;5.406;2022-07-06T08:52:02;102486.03;;;24.30;40.52
54042;BME280;41156;51.508;5.406;2022-07-06T08:55:03;102485.91;;;24.10;40.71
54042;BME280;41156;51.508;5.406;2022-07-06T08:58:04;102478.97;;;23.70;40.83
54042;BME280;41156;51.508;5.406;2022-07-06T09:01:05;102481.13;;;23.62;40.93
54042;BME280;41156;51.508;5.406;2022-07-06T09:04:06;102479.16;;;23.90;40.98
54042;BME280;41156;51.508;5.406;2022-07-06T09:07:07;102478.28;;;23.52;41.16
54042;BME280;41156;51.508;5.406;2022-07-06T09:10:08;102482.50;;;23.33;41.36
54042;BME280;41156;51.508;5.406;2022-07-06T09:13:09;102477.72;;;23.23;41.31
54042;BME280;41156;51.508;5.406;2022-07-06T09:16:10;102475.50;;;23.20;41.75
54042;BME280;41156;51.508;5.406;2022-07-06T09:19:11;102477.75;;;23.55;41.54
54042;BME280;41156;51.508;5.406;2022-07-06T09:22:27;102479.75;;;23.97;39.57
54042;BME280;41156;51.508;5.406;2022-07-06T09:25:29;102475.50;;;24.27;40.18
54042;BME280;41156;51.508;5.406;2022-07-06T09:28:50;102477.06;;;24.13;38.41
54042;BME280;41156;51.508;5.406;2022-07-06T09:32:01;102480.34;;;24.05;39.28
54042;BME280;41156;51.508;5.406;2022-07-06T09:35:04;102490.75;;;23.92;40.52
54042;BME280;41156;51.508;5.406;2022-07-06T09:38:07;102478.94;;;23.64;40.39
54042;BME280;41156;51.508;5.406;2022-07-06T09:41:09;102484.88;;;23.51;40.71
54042;BME280;41156;51.508;5.406;2022-07-06T09:44:09;102480.22;;;23.24;40.73
54042;BME280;41156;51.508;5.406;2022-07-06T09:47:11;102488.03;;;23.05;40.92
54042;BME280;41156;51.508;5.406;2022-07-06T09:50:15;102495.69;;;22.54;40.07
54042;BME280;41156;51.508;5.406;2022-07-06T09:53:15;102485.81;;;22.19;41.10
54042;BME280;41156;51.508;5.406;2022-07-06T09:56:17;102494.81;;;22.31;41.18
54042;BME280;41156;51.508;5.406;2022-07-06T09:59:21;102486.84;;;22.52;40.38
54042;BME280;41156;51.508;5.406;2022-07-06T10:02:23;102483.84;;;22.53;39.96
54042;BME280;41156;51.508;5.406;2022-07-06T10:05:26;102492.09;;;22.53;40.45
54042;BME280;41156;51.508;5.406;2022-07-06T10:08:30;102491.22;;;22.70;41.17
54042;BME280;41156;51.508;5.406;2022-07-06T10:11:34;102490.28;;;22.86;39.83
54042;BME280;41156;51.508;5.406;2022-07-06T10:14:36;102489.69;;;22.84;40.32
54042;BME280;41156;51.508;5.406;2022-07-06T10:17:38;102496.63;;;22.87;40.75
54042;BME280;41156;51.508;5.406;2022-07-06T10:20:39;102490.41;;;22.97;40.90
54042;BME280;41156;51.508;5.406;2022-07-06T10:23:41;102498.63;;;22.91;40.87
54042;BME280;41156;51.508;5.406;2022-07-06T10:26:42;102493.47;;;22.78;40.71
54042;BME280;41156;51.508;5.406;2022-07-06T10:29:42;102495.16;;;22.79;40.60
54042;BME280;41156;51.508;5.406;2022-07-06T10:32:44;102500.16;;;22.82;39.34
54042;BME280;41156;51.508;5.406;2022-07-06T10:35:46;102497.66;;;22.81;40.63
54042;BME280;41156;51.508;5.406;2022-07-06T10:38:49;102498.63;;;22.91;40.27
54042;BME280;41156;51.508;5.406;2022-07-06T10:41:49;102490.41;;;22.97;40.27
54042;BME280;41156;51.508;5.406;2022-07-06T10:44:50;102492.44;;;23.06;40.48
54042;BME280;41156;51.508;5.406;2022-07-06T10:51:12;102492.72;;;23.64;39.72
54042;BME280;41156;51.508;5.406;2022-07-06T10:54:13;102485.75;;;23.52;40.08
54042;BME280;41156;51.508;5.406;2022-07-06T10:57:14;102493.53;;;23.60;39.42
54042;BME280;41156;51.508;5.406;2022-07-06T11:00:15;102492.34;;;23.51;39.57
54042;BME280;41156;51.508;5.406;2022-07-06T11:03:38;102482.81;;;23.36;38.55
54042;BME280;41156;51.508;5.406;2022-07-06T11:06:39;102480.09;;;23.41;39.83
54042;BME280;41156;51.508;5.406;2022-07-06T11:09:41;102480.81;;;23.59;39.35
54042;BME280;41156;51.508;5.406;2022-07-06T11:12:58;102485.63;;;23.74;38.63
54042;BME280;41156;51.508;5.406;2022-07-06T11:16:02;102484.31;;;23.81;37.79
54042;BME280;41156;51.508;5.406;2022-07-06T11:19:13;102492.25;;;23.73;37.07
54042;BME280;41156;51.508;5.406;2022-07-06T11:22:15;102480.88;;;23.64;38.10
54042;BME280;41156;51.508;5.406;2022-07-06T11:25:16;102473.31;;;23.54;38.03
54042;BME280;41156;51.508;5.406;2022-07-06T11:28:17;102479.94;;;23.86;38.10
54042;BME280;41156;51.508;5.406;2022-07-06T11:31:17;102479.94;;;24.28;37.44
54042;BME280;41156;51.508;5.406;2022-07-06T11:34:23;102477.38;;;24.69;36.55
54042;BME280;41156;51.508;5.406;2022-07-06T11:37:23;102467.78;;;24.98;36.73
54042;BME280;41156;51.508;5.406;2022-07-06T11:40:25;102462.56;;;25.17;36.15
54042;BME280;41156;51.508;5.406;2022-07-06T11:43:26;102457.63;;;25.29;35.63
54042;BME280;41156;51.508;5.406;2022-07-06T11:46:28;102453.75;;;25.51;35.47
54042;BME280;41156;51.508;5.406;2022-07-06T11:49:30;102447.91;;;25.88;34.88
54042;BME280;41156;51.508;5.406;2022-07-06T11:52:31;102442.38;;;25.78;34.70
54042;BME280;41156;51.508;5.406;2022-07-06T11:55:32;102443.22;;;25.73;33.54
54042;BME280;41156;51.508;5.406;2022-07-06T11:58:34;102442.94;;;25.70;34.04
54042;BME280;41156;51.508;5.406;2022-07-06T12:01:35;102439.06;;;25.71;33.33
54042;BME280;41156;51.508;5.406;2022-07-06T12:04:42;102438.25;;;25.70;34.00
54042;BME280;41156;51.508;5.406;2022-07-06T12:07:42;102435.69;;;25.89;33.69
54042;BME280;41156;51.508;5.406;2022-07-06T12:10:42;102432.59;;;26.21;33.61
54042;BME280;41156;51.508;5.406;2022-07-06T12:13:43;102427.75;;;26.48;33.40
54042;BME280;41156;51.508;5.406;2022-07-06T12:16:44;102423.09;;;26.43;33.50
54042;BME280;41156;51.508;5.406;2022-07-06T12:19:52;102410.00;;;26.54;32.59
54042;BME280;41156;51.508;5.406;2022-07-06T12:23:03;102408.88;;;26.65;31.50
54042;BME280;41156;51.508;5.406;2022-07-06T12:26:04;102410.75;;;26.75;32.83
54042;BME280;41156;51.508;5.406;2022-07-06T12:29:09;102412.56;;;26.95;32.41
54042;BME280;41156;51.508;5.406;2022-07-06T12:32:18;102409.81;;;26.90;32.08
54042;BME280;41156;51.508;5.406;2022-07-06T12:35:22;102396.03;;;26.80;29.31
54042;BME280;41156;51.508;5.406;2022-07-06T12:38:27;102404.78;;;26.47;31.92
54042;BME280;41156;51.508;5.406;2022-07-06T12:41:29;102400.75;;;26.74;31.85
54042;BME280;41156;51.508;5.406;2022-07-06T12:44:31;102400.06;;;26.92;31.83
54042;BME280;41156;51.508;5.406;2022-07-06T12:47:31;102398.22;;;27.17;31.46
54042;BME280;41156;51.508;5.406;2022-07-06T12:50:33;102402.41;;;27.14;31.60
54042;BME280;41156;51.508;5.406;2022-07-06T12:53:33;102396.03;;;27.48;31.20
54042;BME280;41156;51.508;5.406;2022-07-06T12:56:34;102384.00;;;27.58;30.98
54042;BME280;41156;51.508;5.406;2022-07-06T12:59:40;102405.53;;;27.72;29.70
54042;BME280;41156;51.508;5.406;2022-07-06T13:02:44;102398.78;;;27.78;29.81
54042;BME280;41156;51.508;5.406;2022-07-06T13:05:52;102403.38;;;27.87;30.21
54042;BME280;41156;51.508;5.406;2022-07-06T13:08:52;102398.53;;;28.03;30.67
54042;BME280;41156;51.508;5.406;2022-07-06T13:11:53;102395.06;;;27.87;30.50
54042;BME280;41156;51.508;5.406;2022-07-06T13:14:53;102397.00;;;27.87;30.23
54042;BME280;41156;51.508;5.406;2022-07-06T13:17:54;102389.56;;;27.82;30.15
54042;BME280;41156;51.508;5.406;2022-07-06T13:20:54;102389.06;;;27.51;30.40
54042;BME280;41156;51.508;5.406;2022-07-06T13:23:54;102385.88;;;26.99;30.95
54042;BME280;41156;51.508;5.406;2022-07-06T13:26:55;102385.19;;;26.33;31.18
54042;BME280;41156;51.508;5.406;2022-07-06T13:29:56;102389.69;;;26.14;31.84
54042;BME280;41156;51.508;5.406;2022-07-06T13:32:56;102388.31;;;26.06;31.79
54042;BME280;41156;51.508;5.406;2022-07-06T13:35:57;102388.06;;;26.02;32.68
54042;BME280;41156;51.508;5.406;2022-07-06T13:38:57;102373.13;;;25.83;32.48
54042;BME280;41156;51.508;5.406;2022-07-06T13:41:58;102369.00;;;25.80;32.35
54042;BME280;41156;51.508;5.406;2022-07-06T13:44:58;102362.34;;;25.97;32.02
54042;BME280;41156;51.508;5.406;2022-07-06T13:47:58;102355.69;;;26.48;32.36
54042;BME280;41156;51.508;5.406;2022-07-06T13:50:59;102360.94;;;26.54;32.28
54042;BME280;41156;51.508;5.406;2022-07-06T13:54:00;102343.00;;;26.42;31.88
54042;BME280;41156;51.508;5.406;2022-07-06T13:57:02;102349.41;;;26.37;32.32
54042;BME280;41156;51.508;5.406;2022-07-06T14:00:04;102345.84;;;26.31;32.37
54042;BME280;41156;51.508;5.406;2022-07-06T14:03:04;102347.16;;;26.39;32.49
54042;BME280;41156;51.508;5.406;2022-07-06T14:06:05;102337.59;;;26.61;31.80
54042;BME280;41156;51.508;5.406;2022-07-06T14:09:09;102348.22;;;26.93;31.55
54042;BME280;41156;51.508;5.406;2022-07-06T14:12:09;102347.19;;;26.84;32.03
54042;BME280;41156;51.508;5.406;2022-07-06T15:36:23;102278.13;;;24.97;35.75
54042;BME280;41156;51.508;5.406;2022-07-06T15:39:23;102277.56;;;24.74;36.03
54042;BME280;41156;51.508;5.406;2022-07-06T15:42:24;102270.94;;;24.65;36.60
54042;BME280;41156;51.508;5.406;2022-07-06T15:45:24;102278.66;;;24.73;37.24
54042;BME280;41156;51.508;5.406;2022-07-06T15:48:25;102261.25;;;24.67;37.27
54042;BME280;41156;51.508;5.406;2022-07-06T15:51:26;102262.91;;;24.73;37.20
54042;BME280;41156;51.508;5.406;2022-07-06T15:54:27;102257.38;;;24.73;37.21
54042;BME280;41156;51.508;5.406;2022-07-06T15:57:27;102257.94;;;24.60;37.20
54042;BME280;41156;51.508;5.406;2022-07-06T16:00:27;102252.94;;;24.47;37.66
54042;BME280;41156;51.508;5.406;2022-07-06T16:03:28;102250.69;;;24.33;37.71
54042;BME280;41156;51.508;5.406;2022-07-06T16:06:28;102250.38;;;24.25;37.99
54042;BME280;41156;51.508;5.406;2022-07-06T16:09:28;102241.28;;;24.24;38.12
54042;BME280;41156;51.508;5.406;2022-07-06T16:12:29;102237.44;;;24.30;38.51
54042;BME280;41156;51.508;5.406;2022-07-06T16:15:29;102234.13;;;24.38;38.02
54042;BME280;41156;51.508;5.406;2022-07-06T16:18:30;102246.28;;;24.37;38.71
54042;BME280;41156;51.508;5.406;2022-07-06T16:21:30;102247.66;;;24.35;38.66
54042;BME280;41156;51.508;5.406;2022-07-06T16:24:31;102244.03;;;24.24;38.96
54042;BME280;41156;51.508;5.406;2022-07-06T16:27:31;102235.19;;;24.12;39.13
54042;BME280;41156;51.508;5.406;2022-07-06T16:30:31;102221.06;;;23.93;39.85
54042;BME280;41156;51.508;5.406;2022-07-06T16:33:32;102223.81;;;23.93;39.95
54042;BME280;41156;51.508;5.406;2022-07-06T16:36:37;102212.97;;;23.81;39.69
54042;BME280;41156;51.508;5.406;2022-07-06T16:39:37;102207.44;;;23.71;40.05
54042;BME280;41156;51.508;5.406;2022-07-06T16:42:37;102205.47;;;23.66;40.82
54042;BME280;41156;51.508;5.406;2022-07-06T16:45:38;102214.56;;;23.61;40.67
54042;BME280;41156;51.508;5.406;2022-07-06T16:48:38;102206.28;;;23.56;40.83
54042;BME280;41156;51.508;5.406;2022-07-06T16:51:38;102205.97;;;23.48;40.60
54042;BME280;41156;51.508;5.406;2022-07-06T16:54:39;102200.72;;;23.46;41.05
54042;BME280;41156;51.508;5.406;2022-07-06T16:57:39;102191.88;;;23.39;41.34
54042;BME280;41156;51.508;5.406;2022-07-06T17:00:43;102197.38;;;23.34;41.72
54042;BME280;41156;51.508;5.406;2022-07-06T17:03:43;102195.16;;;23.36;42.04
54042;BME280;41156;51.508;5.406;2022-07-06T17:06:43;102188.03;;;23.40;41.77
54042;BME280;41156;51.508;5.406;2022-07-06T17:09:43;102188.81;;;23.35;42.73
54042;BME280;41156;51.508;5.406;2022-07-06T17:12:44;102186.88;;;23.31;42.71